Deer Lodge (38S)
Deer Lodge, MT
Field Elevation: 4692
Lat: 49°23.27N  Long: 112°45.89W
CTAF/Unicom Freq: 120.0250
   
     For Weather-by-Phone, call 406-846-1177
Weather Advisories
2015-07-05   09:27 Z
Altimeter 30.07" Hg
Wind 010° @ 11 KT
Gusts 16 KT
Visibility 10 SM
Temperature 15° C (59° F)
Dewpoint 10° C (50° F)
Relative Humidity 73%
Density Altitude --
Condensation Altitude 7,200 feet
Wind and Runways
Indicated Runway = 31
Headwind = 6 kt
Crosswind = 10 kt
History
 
 
 
More Info
All DigiWx sites map
Weather Radar
NOAA Forecast
 
Airport IQ 5010
(S59) Libby
(6S5) Ravalli County
 
about DigiWx
 
FAA Disclaimer: The data displayed is for advisory purposes only and is not to be used for flight planning or operations. For official data, please call 406-846-1177 to hear the current automated AWOS voice message.
  METAR 38S 050927Z AUTO 01011G16KT VIS 10 SM 15/10 A3007